Time;durP1;ratioP1;P1;durP2;ratioP2;P2;SDS_P1;SDS_P2;PMS_P1;PMS_P2;Temp;Humidity;BMP_temperature;BMP_pressure;BME280_temperature;BME280_humidity;BME280_pressure;Samples;Min_cycle;Max_cycle;Signal;HPM_P1;HPM_P2
2023/06/18 00:02:11;;;;;;;17.85;11.70;;;;;;;;;;5071717;28;20152;-79
2023/06/18 00:04:37;;;;;;;18.05;11.15;;;;;;;;;;5072755;28;20043;-80
2023/06/18 00:07:03;;;;;;;17.70;10.80;;;;;;;;;;5058238;28;20032;-78
2023/06/18 00:09:29;;;;;;;19.75;11.40;;;;;;;;;;5083823;28;20508;-78
2023/06/18 00:11:56;;;;;;;18.15;11.77;;;;;;;;;;5057636;28;20144;-79
2023/06/18 00:14:22;;;;;;;17.77;11.35;;;;;;;;;;5074867;28;20033;-78
2023/06/18 00:16:50;;;;;;;17.45;11.38;;;;;;;;;;5056929;28;20052;-78
2023/06/18 00:19:16;;;;;;;19.73;12.77;;;;;;;;;;5072184;28;20108;-80
2023/06/18 00:21:43;;;;;;;21.20;11.25;;;;;;;;;;5077698;28;20028;-79
2023/06/18 00:24:09;;;;;;;18.08;11.60;;;;;;;;;;5073692;28;20036;-78
2023/06/18 00:26:35;;;;;;;22.63;12.13;;;;;;;;;;5071478;28;20523;-81
2023/06/18 00:29:02;;;;;;;19.30;11.40;;;;;;;;;;5078694;28;20361;-77
2023/06/18 00:31:28;;;;;;;20.23;11.88;;;;;;;;;;5070941;28;20674;-78
2023/06/18 00:33:55;;;;;;;18.52;11.35;;;;;;;;;;5075447;28;20017;-78
2023/06/18 00:36:26;;;;;;;18.65;11.82;;;;;;;;;;5070370;28;20473;-78
2023/06/18 00:38:52;;;;;;;17.20;11.27;;;;;;;;;;5048796;28;20044;-79
2023/06/18 00:41:18;;;;;;;18.17;10.70;;;;;;;;;;5064619;28;20061;-79
2023/06/18 00:43:44;;;;;;;15.55;11.55;;;;;;;;;;5064549;28;20438;-79
2023/06/18 00:46:11;;;;;;;18.58;10.68;;;;;;;;;;5046817;28;20088;-79
2023/06/18 00:48:37;;;;;;;19.40;12.80;;;;;;;;;;5068492;28;20111;-79
2023/06/18 00:51:04;;;;;;;15.82;10.38;;;;;;;;;;5070565;28;20119;-78
2023/06/18 00:53:30;;;;;;;18.83;11.57;;;;;;;;;;5071932;28;20047;-78
2023/06/18 00:55:57;;;;;;;16.95;10.57;;;;;;;;;;5072802;28;20040;-78
2023/06/18 00:58:25;;;;;;;15.35;10.20;;;;;;;;;;5055070;28;20027;-79
2023/06/18 01:00:51;;;;;;;17.05;10.63;;;;;;;;;;5071099;28;20039;-79
2023/06/18 01:03:18;;;;;;;15.82;9.65;;;;;;;;;;5050077;28;20374;-78
2023/06/18 01:05:46;;;;;;;16.63;10.27;;;;;;;;;;5048347;28;20067;-80
2023/06/18 01:08:12;;;;;;;18.27;11.43;;;;;;;;;;5046034;28;20025;-78
2023/06/18 01:10:40;;;;;;;22.92;10.95;;;;;;;;;;5071004;28;20032;-78
2023/06/18 01:13:11;;;;;;;17.13;10.80;;;;;;;;;;5053611;28;20514;-79
2023/06/18 01:15:40;;;;;;;14.60;9.50;;;;;;;;;;5071921;28;20020;-78
2023/06/18 01:18:07;;;;;;;16.58;11.20;;;;;;;;;;5068615;28;20476;-79
2023/06/18 01:20:41;;;;;;;16.75;10.38;;;;;;;;;;5053355;28;20035;-79
2023/06/18 01:23:21;;;;;;;13.95;10.00;;;;;;;;;;5068392;28;20028;-79
2023/06/18 01:25:48;;;;;;;18.35;11.45;;;;;;;;;;5070392;28;20051;-80
2023/06/18 01:28:15;;;;;;;15.85;10.07;;;;;;;;;;5069560;28;20036;-80
2023/06/18 01:30:41;;;;;;;13.63;9.70;;;;;;;;;;5053856;28;20036;-77
2023/06/18 01:33:12;;;;;;;14.02;9.68;;;;;;;;;;5074791;28;20025;-78
2023/06/18 01:35:38;;;;;;;13.70;9.13;;;;;;;;;;5069412;28;20031;-77
2023/06/18 01:38:17;;;;;;;13.45;9.52;;;;;;;;;;5071395;28;20461;-78
2023/06/18 01:40:49;;;;;;;12.55;9.32;;;;;;;;;;5051736;28;20475;-77
2023/06/18 01:43:18;;;;;;;14.60;9.70;;;;;;;;;;5068844;28;20032;-77
2023/06/18 01:46:03;;;;;;;12.50;8.93;;;;;;;;;;5071877;28;20376;-77
2023/06/18 01:48:32;;;;;;;12.10;8.60;;;;;;;;;;5069330;28;20066;-77
2023/06/18 01:50:58;;;;;;;11.20;8.25;;;;;;;;;;5065560;28;20032;-77
2023/06/18 01:53:25;;;;;;;15.70;9.60;;;;;;;;;;5067394;28;20032;-77
2023/06/18 01:55:53;;;;;;;11.70;8.13;;;;;;;;;;5051000;28;20087;-77
2023/06/18 01:58:21;;;;;;;17.55;9.40;;;;;;;;;;5042635;28;20032;-77
2023/06/18 02:00:48;;;;;;;13.57;8.50;;;;;;;;;;5066721;28;20367;-78
2023/06/18 02:03:14;;;;;;;13.48;8.75;;;;;;;;;;5067652;28;20047;-78
2023/06/18 02:05:40;;;;;;;13.77;9.48;;;;;;;;;;5067414;28;20539;-77
2023/06/18 02:08:06;;;;;;;17.00;10.63;;;;;;;;;;5069007;28;20033;-78
2023/06/18 02:10:32;;;;;;;15.52;9.43;;;;;;;;;;5070720;28;20462;-79
2023/06/18 02:12:59;;;;;;;18.05;11.00;;;;;;;;;;5069676;28;20024;-78
2023/06/18 02:15:25;;;;;;;15.05;10.45;;;;;;;;;;5058354;28;20392;-79
2023/06/18 02:17:51;;;;;;;19.60;12.13;;;;;;;;;;5071252;28;20021;-79
2023/06/18 02:20:18;;;;;;;19.75;11.30;;;;;;;;;;5066742;28;20044;-79
2023/06/18 02:22:45;;;;;;;18.80;12.15;;;;;;;;;;5052271;28;20024;-80
2023/06/18 02:25:12;;;;;;;18.55;11.90;;;;;;;;;;5071969;28;20099;-79
2023/06/18 02:27:38;;;;;;;18.50;11.05;;;;;;;;;;5044466;28;20090;-78
2023/06/18 02:30:06;;;;;;;20.48;12.13;;;;;;;;;;5045168;28;20021;-79
2023/06/18 02:32:36;;;;;;;19.83;11.75;;;;;;;;;;5072263;28;20110;-79
2023/06/18 02:35:04;;;;;;;23.05;12.45;;;;;;;;;;5070753;28;20373;-78
2023/06/18 02:37:30;;;;;;;20.50;11.40;;;;;;;;;;5070575;28;20086;-78
2023/06/18 02:39:56;;;;;;;19.90;11.85;;;;;;;;;;5067368;28;20120;-80
2023/06/18 02:42:24;;;;;;;23.98;12.70;;;;;;;;;;5069487;28;20060;-78
2023/06/18 02:44:50;;;;;;;24.73;13.32;;;;;;;;;;5075605;28;20028;-78
2023/06/18 02:47:16;;;;;;;24.55;12.07;;;;;;;;;;5071145;28;20090;-79
2023/06/18 02:49:42;;;;;;;19.35;12.27;;;;;;;;;;5054615;28;20051;-78
2023/06/18 02:52:08;;;;;;;22.33;14.05;;;;;;;;;;5066716;28;20115;-78
2023/06/18 02:54:34;;;;;;;25.83;13.57;;;;;;;;;;5054108;28;20059;-79
2023/06/18 02:57:00;;;;;;;26.95;15.77;;;;;;;;;;5049854;28;20025;-80
2023/06/18 02:59:26;;;;;;;27.40;13.15;;;;;;;;;;5069781;28;20029;-81
2023/06/18 03:01:53;;;;;;;24.00;13.77;;;;;;;;;;5068710;28;20036;-78
2023/06/18 03:04:19;;;;;;;19.80;13.07;;;;;;;;;;5070678;28;20028;-79
2023/06/18 03:06:45;;;;;;;22.70;12.70;;;;;;;;;;5070502;28;20071;-79
2023/06/18 03:09:12;;;;;;;20.35;11.93;;;;;;;;;;5069010;28;20052;-79
2023/06/18 03:11:38;;;;;;;27.92;14.02;;;;;;;;;;5060550;28;20111;-79
2023/06/18 03:14:04;;;;;;;26.00;13.32;;;;;;;;;;5073150;28;20418;-78
2023/06/18 03:16:31;;;;;;;19.70;12.43;;;;;;;;;;5070234;28;20020;-78
2023/06/18 03:18:57;;;;;;;24.48;13.77;;;;;;;;;;5050630;28;20028;-79
2023/06/18 03:21:23;;;;;;;23.20;13.32;;;;;;;;;;5052684;28;20028;-79
2023/06/18 03:23:49;;;;;;;24.38;13.30;;;;;;;;;;5056389;28;20028;-78
2023/06/18 03:26:16;;;;;;;23.38;13.40;;;;;;;;;;5067233;28;20028;-78
2023/06/18 03:28:42;;;;;;;23.75;13.25;;;;;;;;;;5054148;28;20343;-79
2023/06/18 03:31:09;;;;;;;24.35;12.50;;;;;;;;;;5073313;28;20053;-79
2023/06/18 03:33:35;;;;;;;21.05;13.35;;;;;;;;;;5070216;28;21027;-78
2023/06/18 03:36:02;;;;;;;23.45;12.93;;;;;;;;;;5070773;28;20117;-78
2023/06/18 03:38:29;;;;;;;22.55;13.45;;;;;;;;;;5079724;28;20023;-78
2023/06/18 03:40:55;;;;;;;25.52;13.02;;;;;;;;;;5057829;28;20043;-80
2023/06/18 03:43:21;;;;;;;27.15;13.13;;;;;;;;;;5068620;28;20020;-78
2023/06/18 03:45:47;;;;;;;25.48;13.95;;;;;;;;;;5054095;28;20028;-79
2023/06/18 03:48:14;;;;;;;22.15;12.63;;;;;;;;;;5053727;28;20037;-79
2023/06/18 03:50:40;;;;;;;25.02;14.50;;;;;;;;;;5069187;28;20034;-78
2023/06/18 03:53:07;;;;;;;23.52;13.55;;;;;;;;;;5055427;28;20074;-79
2023/06/18 03:55:33;;;;;;;26.15;13.77;;;;;;;;;;5066555;28;20024;-78
2023/06/18 03:57:59;;;;;;;26.95;13.32;;;;;;;;;;5073803;28;20397;-81
2023/06/18 04:00:25;;;;;;;24.17;13.60;;;;;;;;;;5066130;28;20040;-79
2023/06/18 04:02:52;;;;;;;25.73;13.50;;;;;;;;;;5072316;28;20036;-78
2023/06/18 04:05:18;;;;;;;24.38;14.05;;;;;;;;;;5057005;28;20036;-78
2023/06/18 04:07:44;;;;;;;28.52;14.35;;;;;;;;;;5076784;28;20084;-78
2023/06/18 04:10:10;;;;;;;24.63;13.75;;;;;;;;;;5075152;28;20124;-78
2023/06/18 04:12:36;;;;;;;29.88;13.20;;;;;;;;;;5054028;28;20036;-78
2023/06/18 04:15:02;;;;;;;25.55;13.40;;;;;;;;;;5058333;28;20016;-79
2023/06/18 04:17:29;;;;;;;26.85;13.65;;;;;;;;;;5068175;28;20029;-77
2023/06/18 04:19:55;;;;;;;27.88;13.43;;;;;;;;;;5058402;28;20020;-80
2023/06/18 04:22:21;;;;;;;19.65;12.23;;;;;;;;;;5059403;28;20128;-79
2023/06/18 04:24:47;;;;;;;25.10;13.57;;;;;;;;;;5062599;28;20736;-79
2023/06/18 04:27:13;;;;;;;26.48;11.52;;;;;;;;;;5073051;28;20047;-80
2023/06/18 04:29:39;;;;;;;22.48;13.23;;;;;;;;;;5073737;28;20099;-79
2023/06/18 04:32:06;;;;;;;23.58;13.30;;;;;;;;;;5074606;28;20174;-79
2023/06/18 04:34:32;;;;;;;25.17;12.45;;;;;;;;;;5072002;28;20467;-79
2023/06/18 04:36:58;;;;;;;23.65;12.95;;;;;;;;;;5063573;28;20029;-80
2023/06/18 04:39:24;;;;;;;24.48;13.77;;;;;;;;;;5067760;28;20085;-79
2023/06/18 04:41:50;;;;;;;24.63;13.93;;;;;;;;;;5071348;28;20036;-80
2023/06/18 04:44:17;;;;;;;23.33;13.60;;;;;;;;;;5050864;28;20110;-80
2023/06/18 04:46:43;;;;;;;24.08;13.68;;;;;;;;;;5056035;28;20491;-81
2023/06/18 04:49:09;;;;;;;26.17;14.25;;;;;;;;;;5073729;28;20040;-79
2023/06/18 04:51:35;;;;;;;21.98;13.73;;;;;;;;;;5050902;28;20096;-79
2023/06/18 04:54:03;;;;;;;25.33;12.90;;;;;;;;;;5073158;28;20024;-78
2023/06/18 04:56:29;;;;;;;23.35;12.80;;;;;;;;;;5071290;28;20035;-80
2023/06/18 04:58:55;;;;;;;22.42;13.63;;;;;;;;;;5053667;28;20025;-79
2023/06/18 05:01:21;;;;;;;21.23;12.93;;;;;;;;;;5052378;28;20031;-79
2023/06/18 05:03:47;;;;;;;23.95;14.05;;;;;;;;;;5068596;28;20030;-79
2023/06/18 05:06:13;;;;;;;23.70;13.38;;;;;;;;;;5068915;28;20551;-80
2023/06/18 05:08:39;;;;;;;25.88;14.55;;;;;;;;;;5064873;28;20120;-79
2023/06/18 05:11:06;;;;;;;23.15;13.88;;;;;;;;;;5064189;28;20109;-78
2023/06/18 05:13:32;;;;;;;26.33;14.05;;;;;;;;;;5069804;28;20066;-79
2023/06/18 05:15:59;;;;;;;28.27;14.85;;;;;;;;;;5072876;28;20048;-79
2023/06/18 05:18:25;;;;;;;29.35;14.93;;;;;;;;;;5050429;28;20058;-80
2023/06/18 05:20:51;;;;;;;32.10;15.10;;;;;;;;;;5050032;28;20038;-80
2023/06/18 05:23:17;;;;;;;30.25;15.90;;;;;;;;;;5051265;28;20028;-79
2023/06/18 05:25:43;;;;;;;32.05;16.23;;;;;;;;;;5062431;28;20037;-80
2023/06/18 05:28:09;;;;;;;30.02;15.25;;;;;;;;;;5068938;28;20035;-79
2023/06/18 05:30:35;;;;;;;33.25;15.85;;;;;;;;;;5067159;28;20044;-80
2023/06/18 05:33:02;;;;;;;29.98;15.20;;;;;;;;;;5049326;28;20036;-79
2023/06/18 05:35:28;;;;;;;30.80;16.38;;;;;;;;;;5068673;28;20025;-79
2023/06/18 05:37:54;;;;;;;35.95;19.08;;;;;;;;;;5051043;28;20623;-78
2023/06/18 05:40:20;;;;;;;31.10;15.77;;;;;;;;;;5067514;28;20373;-79
2023/06/18 05:42:46;;;;;;;32.13;17.25;;;;;;;;;;5068798;28;20032;-79
2023/06/18 05:45:14;;;;;;;36.38;17.90;;;;;;;;;;5053292;28;20029;-81
2023/06/18 05:47:40;;;;;;;36.03;17.27;;;;;;;;;;5067057;28;20090;-81
2023/06/18 05:50:06;;;;;;;41.28;18.27;;;;;;;;;;5071863;28;20044;-80
2023/06/18 05:52:32;;;;;;;38.95;19.15;;;;;;;;;;5069118;28;20385;-79
2023/06/18 05:54:59;;;;;;;39.42;18.40;;;;;;;;;;5063820;28;20036;-79
2023/06/18 05:57:25;;;;;;;36.40;19.17;;;;;;;;;;5064367;28;20025;-82
2023/06/18 05:59:51;;;;;;;37.03;18.42;;;;;;;;;;5072052;28;20024;-91
2023/06/18 06:02:17;;;;;;;37.88;16.98;;;;;;;;;;5061537;28;20105;-83
2023/06/18 06:04:43;;;;;;;35.65;17.63;;;;;;;;;;5044376;28;20033;-83
2023/06/18 06:07:10;;;;;;;35.00;16.33;;;;;;;;;;5065325;28;20032;-79
2023/06/18 06:09:36;;;;;;;38.33;17.42;;;;;;;;;;5078038;28;20032;-81
2023/06/18 06:12:02;;;;;;;32.80;16.40;;;;;;;;;;5061290;28;20028;-85
2023/06/18 06:14:29;;;;;;;31.13;15.68;;;;;;;;;;5052751;28;20025;-90
2023/06/18 06:16:57;;;;;;;33.95;16.67;;;;;;;;;;5050359;28;20048;-84
2023/06/18 06:19:24;;;;;;;30.13;14.82;;;;;;;;;;5050197;28;20028;-81
2023/06/18 06:21:50;;;;;;;34.00;16.25;;;;;;;;;;5071200;28;20025;-80
2023/06/18 06:24:16;;;;;;;32.60;16.73;;;;;;;;;;5066052;28;20566;-80
2023/06/18 06:26:43;;;;;;;28.83;15.65;;;;;;;;;;5044860;28;20032;-80
2023/06/18 06:29:09;;;;;;;28.27;14.77;;;;;;;;;;5056530;28;20032;-83
2023/06/18 06:31:35;;;;;;;32.67;15.32;;;;;;;;;;5053979;28;20049;-84
2023/06/18 06:34:02;;;;;;;27.88;14.30;;;;;;;;;;5050778;28;20036;-83
2023/06/18 06:36:28;;;;;;;26.35;14.43;;;;;;;;;;5075356;28;20033;-83
2023/06/18 06:38:54;;;;;;;23.95;13.27;;;;;;;;;;5053819;28;20021;-85
2023/06/18 06:41:20;;;;;;;28.73;14.73;;;;;;;;;;5070404;28;20128;-80
2023/06/18 06:43:46;;;;;;;28.95;13.57;;;;;;;;;;5047113;28;20024;-82
2023/06/18 06:46:13;;;;;;;21.45;12.10;;;;;;;;;;5044831;28;20040;-81
2023/06/18 06:48:40;;;;;;;21.42;12.57;;;;;;;;;;5061276;28;20032;-81
2023/06/18 06:51:06;;;;;;;21.88;13.80;;;;;;;;;;5030751;28;20052;-80
2023/06/18 06:53:32;;;;;;;22.00;12.05;;;;;;;;;;5062060;28;20043;-75
2023/06/18 06:55:58;;;;;;;23.00;12.52;;;;;;;;;;5053880;28;20032;-77
2023/06/18 06:58:24;;;;;;;29.90;14.07;;;;;;;;;;5067286;28;20103;-77
2023/06/18 07:00:50;;;;;;;29.80;14.52;;;;;;;;;;5046729;28;20545;-77
2023/06/18 07:03:18;;;;;;;25.90;14.65;;;;;;;;;;5066152;28;20039;-77
2023/06/18 07:05:44;;;;;;;27.90;13.90;;;;;;;;;;5075497;28;20038;-77
2023/06/18 07:08:10;;;;;;;23.90;13.93;;;;;;;;;;5056463;28;20039;-78
2023/06/18 07:10:36;;;;;;;24.00;14.55;;;;;;;;;;5071072;28;20029;-79
2023/06/18 07:13:03;;;;;;;25.48;14.02;;;;;;;;;;5053058;28;20021;-78
2023/06/18 07:15:29;;;;;;;23.15;14.55;;;;;;;;;;5054053;28;20107;-79
2023/06/18 07:17:55;;;;;;;25.70;14.05;;;;;;;;;;5054466;28;20033;-77
2023/06/18 07:20:21;;;;;;;24.13;14.13;;;;;;;;;;5053125;28;20071;-76
2023/06/18 07:22:47;;;;;;;24.00;14.15;;;;;;;;;;5072978;28;20036;-77
2023/06/18 07:25:14;;;;;;;28.80;14.50;;;;;;;;;;5058665;28;20577;-77
2023/06/18 07:27:40;;;;;;;26.33;14.50;;;;;;;;;;5054836;28;20135;-77
2023/06/18 07:30:06;;;;;;;24.58;15.68;;;;;;;;;;5048396;28;20037;-79
2023/06/18 07:32:32;;;;;;;24.77;14.00;;;;;;;;;;5073605;28;20051;-78
2023/06/18 07:34:59;;;;;;;25.15;14.55;;;;;;;;;;5065746;28;20032;-79
2023/06/18 07:37:25;;;;;;;23.77;13.60;;;;;;;;;;5048451;28;20024;-80
2023/06/18 07:39:51;;;;;;;23.73;13.60;;;;;;;;;;5065933;28;20033;-79
2023/06/18 07:42:17;;;;;;;21.80;12.63;;;;;;;;;;5061030;28;20043;-81
2023/06/18 07:44:43;;;;;;;22.77;13.30;;;;;;;;;;5064244;28;20042;-77
2023/06/18 07:47:10;;;;;;;22.02;11.88;;;;;;;;;;5063923;28;20139;-76
2023/06/18 07:49:36;;;;;;;21.73;13.30;;;;;;;;;;5063299;28;20033;-79
2023/06/18 07:52:03;;;;;;;18.52;13.05;;;;;;;;;;5061488;28;20032;-81
2023/06/18 07:54:29;;;;;;;17.55;11.88;;;;;;;;;;5063639;28;20046;-79
2023/06/18 07:56:58;;;;;;;18.55;11.75;;;;;;;;;;5044672;28;20389;-78
2023/06/18 07:59:26;;;;;;;17.23;11.98;;;;;;;;;;5059526;28;20047;-77
2023/06/18 08:01:52;;;;;;;19.67;11.68;;;;;;;;;;5062360;28;20020;-79
2023/06/18 08:04:19;;;;;;;20.27;11.02;;;;;;;;;;5063328;28;20435;-78
2023/06/18 08:06:48;;;;;;;15.15;9.00;;;;;;;;;;5064454;28;20108;-79
2023/06/18 08:09:14;;;;;;;13.93;9.48;;;;;;;;;;5045592;28;20044;-78
2023/06/18 08:11:41;;;;;;;13.38;9.30;;;;;;;;;;5063565;28;20032;-78
2023/06/18 08:14:07;;;;;;;13.48;9.55;;;;;;;;;;5058989;28;20020;-78
2023/06/18 08:16:34;;;;;;;13.55;8.90;;;;;;;;;;5061299;28;20090;-77
2023/06/18 08:19:00;;;;;;;10.77;7.88;;;;;;;;;;5044370;28;20032;-78
2023/06/18 08:21:26;;;;;;;10.80;8.27;;;;;;;;;;5061023;28;20090;-81
2023/06/18 08:23:52;;;;;;;13.27;8.32;;;;;;;;;;5063060;28;20043;-77
2023/06/18 08:26:19;;;;;;;12.02;8.25;;;;;;;;;;5060973;28;20029;-78
2023/06/18 08:28:45;;;;;;;12.60;9.00;;;;;;;;;;5065374;28;20070;-78
2023/06/18 08:31:11;;;;;;;11.00;8.98;;;;;;;;;;5062791;28;20068;-77
2023/06/18 08:33:38;;;;;;;13.02;7.75;;;;;;;;;;5064988;28;20086;-80
2023/06/18 08:36:04;;;;;;;12.15;8.80;;;;;;;;;;5045932;28;20055;-78
2023/06/18 08:38:30;;;;;;;10.27;8.70;;;;;;;;;;5062540;28;20058;-78
2023/06/18 08:41:03;;;;;;;13.38;8.63;;;;;;;;;;5045156;28;20025;-77
2023/06/18 08:43:32;;;;;;;13.25;8.35;;;;;;;;;;5046535;28;20043;-79
2023/06/18 08:46:09;;;;;;;9.55;7.57;;;;;;;;;;5046565;28;20032;-80
2023/06/18 08:48:48;;;;;;;11.77;8.52;;;;;;;;;;5044973;28;20471;-80
2023/06/18 08:51:16;;;;;;;13.35;9.07;;;;;;;;;;5065629;28;20028;-78
2023/06/18 08:53:51;;;;;;;12.45;7.88;;;;;;;;;;5061281;28;20028;-79
2023/06/18 08:56:18;;;;;;;11.32;7.90;;;;;;;;;;5062249;28;20035;-79
2023/06/18 08:58:51;;;;;;;10.85;6.93;;;;;;;;;;5046992;28;20038;-80
2023/06/18 09:01:21;;;;;;;10.02;7.43;;;;;;;;;;5063502;28;20032;-80
2023/06/18 09:03:47;;;;;;;8.25;6.00;;;;;;;;;;5062536;28;20025;-80
2023/06/18 09:06:13;;;;;;;8.50;5.90;;;;;;;;;;5047003;28;20668;-78
2023/06/18 09:08:40;;;;;;;10.20;6.20;;;;;;;;;;5064144;28;20032;-79
2023/06/18 09:11:06;;;;;;;6.55;5.85;;;;;;;;;;5022138;28;20041;-79
2023/06/18 09:13:33;;;;;;;7.97;5.75;;;;;;;;;;5044817;28;20032;-81
2023/06/18 09:16:02;;;;;;;7.82;5.72;;;;;;;;;;5062958;28;20052;-80
2023/06/18 09:18:29;;;;;;;8.35;6.50;;;;;;;;;;5060670;28;20025;-78
2023/06/18 09:20:55;;;;;;;8.15;6.88;;;;;;;;;;5043347;28;20093;-80
2023/06/18 09:23:21;;;;;;;10.35;7.40;;;;;;;;;;5041027;28;20063;-79
2023/06/18 09:25:54;;;;;;;9.68;6.72;;;;;;;;;;5067954;28;20034;-79
2023/06/18 09:28:21;;;;;;;8.23;6.05;;;;;;;;;;5057162;28;20024;-78
2023/06/18 09:30:54;;;;;;;7.78;6.45;;;;;;;;;;5063756;28;20049;-77
2023/06/18 09:33:28;;;;;;;9.68;5.93;;;;;;;;;;5059852;28;20029;-77
2023/06/18 09:36:00;;;;;;;7.43;5.68;;;;;;;;;;5042127;28;20031;-79
2023/06/18 09:38:52;;;;;;;9.25;5.53;;;;;;;;;;5065235;28;20713;-77
2023/06/18 09:41:19;;;;;;;8.13;5.68;;;;;;;;;;5042874;28;20043;-78
2023/06/18 09:43:47;;;;;;;6.35;5.55;;;;;;;;;;5063192;28;20040;-76
2023/06/18 09:46:15;;;;;;;6.45;5.03;;;;;;;;;;5062744;28;20044;-77
2023/06/18 09:48:42;;;;;;;6.93;5.60;;;;;;;;;;5063312;28;20031;-77
2023/06/18 09:51:09;;;;;;;9.73;5.25;;;;;;;;;;5047412;28;20036;-78
2023/06/18 09:53:35;;;;;;;7.28;5.35;;;;;;;;;;5063039;28;20117;-80
2023/06/18 09:56:09;;;;;;;6.45;4.95;;;;;;;;;;5045389;28;20056;-78
2023/06/18 09:58:42;;;;;;;7.00;4.88;;;;;;;;;;5064347;28;20016;-77
2023/06/18 10:01:08;;;;;;;7.43;5.10;;;;;;;;;;5061958;28;20052;-79
2023/06/18 10:03:35;;;;;;;6.70;4.85;;;;;;;;;;5064220;28;20392;-80
2023/06/18 10:06:10;;;;;;;7.05;5.30;;;;;;;;;;5062728;28;20081;-82
2023/06/18 10:08:38;;;;;;;7.63;5.68;;;;;;;;;;5064555;28;20021;-81
2023/06/18 10:11:05;;;;;;;6.03;4.97;;;;;;;;;;5065489;28;20060;-81
2023/06/18 10:13:32;;;;;;;7.07;4.85;;;;;;;;;;5046954;28;20024;-80
2023/06/18 10:15:59;;;;;;;7.10;5.93;;;;;;;;;;5046760;28;20052;-77
2023/06/18 10:18:26;;;;;;;6.95;5.10;;;;;;;;;;5046577;28;20565;-78
2023/06/18 10:20:55;;;;;;;8.15;5.30;;;;;;;;;;5059458;28;20036;-77
2023/06/18 10:23:21;;;;;;;5.65;5.15;;;;;;;;;;5062817;28;20029;-78
2023/06/18 10:25:47;;;;;;;7.07;5.30;;;;;;;;;;5063369;28;20029;-80
2023/06/18 10:28:13;;;;;;;6.53;5.82;;;;;;;;;;5064529;28;20976;-80
2023/06/18 10:30:40;;;;;;;9.43;5.95;;;;;;;;;;5059657;28;20036;-80
2023/06/18 10:33:06;;;;;;;6.80;5.80;;;;;;;;;;5062084;28;20084;-79
2023/06/18 10:35:33;;;;;;;7.93;6.85;;;;;;;;;;5058012;28;20197;-77
2023/06/18 10:38:00;;;;;;;7.85;6.32;;;;;;;;;;5065304;28;20112;-77
2023/06/18 10:40:26;;;;;;;10.10;6.07;;;;;;;;;;5062257;28;20035;-79
2023/06/18 10:43:02;;;;;;;10.35;7.35;;;;;;;;;;5068211;28;20028;-78
2023/06/18 10:45:28;;;;;;;10.43;6.70;;;;;;;;;;5067723;28;20029;-78
2023/06/18 10:48:13;;;;;;;7.28;6.20;;;;;;;;;;5047888;28;20027;-79
2023/06/18 10:50:40;;;;;;;;;;;;;;;;;;5068534;28;20101;-78
2023/06/18 10:53:24;;;;;;;7.03;5.88;;;;;;;;;;5068354;28;19908;-83
2023/06/18 10:55:57;;;;;;;8.30;6.15;;;;;;;;;;5063850;28;20033;-78
2023/06/18 10:58:33;;;;;;;7.63;5.72;;;;;;;;;;5064784;28;20033;-80
2023/06/18 11:01:00;;;;;;;8.93;6.20;;;;;;;;;;5066677;28;20125;-79
2023/06/18 11:03:36;;;;;;;11.05;7.25;;;;;;;;;;5065020;28;20043;-78
2023/06/18 11:06:03;;;;;;;10.60;7.60;;;;;;;;;;5068097;28;20028;-78
2023/06/18 11:08:34;;;;;;;9.05;6.90;;;;;;;;;;5065987;28;20032;-77
2023/06/18 11:11:04;;;;;;;10.38;6.93;;;;;;;;;;5066844;28;20032;-76
2023/06/18 11:13:32;;;;;;;8.65;7.13;;;;;;;;;;5065497;28;20044;-77
2023/06/18 11:16:00;;;;;;;8.77;6.75;;;;;;;;;;5047513;28;20028;-78
2023/06/18 11:18:27;;;;;;;10.18;6.90;;;;;;;;;;5063794;28;20028;-77
2023/06/18 11:20:54;;;;;;;8.38;6.43;;;;;;;;;;5062732;28;20029;-78
2023/06/18 11:23:22;;;;;;;8.38;6.82;;;;;;;;;;5057431;28;20028;-77
2023/06/18 11:25:49;;;;;;;10.43;6.93;;;;;;;;;;5049104;28;20176;-78
2023/06/18 11:28:16;;;;;;;9.52;6.07;;;;;;;;;;5045161;28;20048;-77
2023/06/18 11:30:47;;;;;;;8.70;6.50;;;;;;;;;;5061371;28;20040;-78
2023/06/18 11:33:14;;;;;;;7.25;6.03;;;;;;;;;;5067698;28;20032;-85
2023/06/18 11:35:40;;;;;;;9.57;6.32;;;;;;;;;;5062556;28;20071;-82
2023/06/18 11:38:06;;;;;;;7.97;6.45;;;;;;;;;;5058863;28;20028;-79
2023/06/18 11:40:32;;;;;;;8.48;6.25;;;;;;;;;;5063603;28;20033;-78
2023/06/18 11:42:58;;;;;;;9.98;6.38;;;;;;;;;;5062230;28;20060;-79
2023/06/18 11:45:25;;;;;;;12.80;7.72;;;;;;;;;;5064476;28;20051;-77
2023/06/18 11:47:52;;;;;;;17.88;8.85;;;;;;;;;;5061367;28;20020;-77
2023/06/18 11:50:20;;;;;;;12.30;8.77;;;;;;;;;;5043047;28;20040;-76
2023/06/18 11:52:46;;;;;;;8.90;7.50;;;;;;;;;;5062024;28;20032;-76
2023/06/18 11:55:14;;;;;;;13.48;8.68;;;;;;;;;;5060244;28;20077;-78
2023/06/18 11:57:40;;;;;;;8.50;7.47;;;;;;;;;;5044743;28;20044;-77
2023/06/18 12:00:10;;;;;;;12.38;8.45;;;;;;;;;;5061327;28;20031;-77
2023/06/18 12:02:40;;;;;;;10.65;7.55;;;;;;;;;;5065030;28;20028;-76
2023/06/18 12:05:08;;;;;;;8.77;7.60;;;;;;;;;;5044690;28;20396;-76
2023/06/18 12:07:35;;;;;;;13.65;8.65;;;;;;;;;;5063856;28;20048;-76
2023/06/18 12:10:05;;;;;;;10.43;7.72;;;;;;;;;;5063191;28;20021;-77
2023/06/18 12:12:52;;;;;;;10.30;6.40;;;;;;;;;;5047446;28;20066;-79
2023/06/18 12:15:21;;;;;;;8.70;6.90;;;;;;;;;;5064693;28;20044;-77
2023/06/18 12:17:47;;;;;;;8.45;6.20;;;;;;;;;;5062613;28;20128;-77
2023/06/18 12:20:13;;;;;;;7.88;6.10;;;;;;;;;;5062460;28;20016;-77
2023/06/18 12:22:40;;;;;;;6.43;5.20;;;;;;;;;;5062436;28;20052;-78
2023/06/18 12:25:11;;;;;;;7.40;4.82;;;;;;;;;;5066037;28;20544;-78
2023/06/18 12:27:37;;;;;;;7.55;5.38;;;;;;;;;;5062198;28;20111;-77
2023/06/18 12:30:05;;;;;;;5.70;5.07;;;;;;;;;;5064594;28;20035;-78
2023/06/18 12:32:33;;;;;;;6.43;5.00;;;;;;;;;;5063017;28;20501;-78
2023/06/18 12:35:09;;;;;;;8.70;5.47;;;;;;;;;;5065541;28;20055;-77
2023/06/18 12:37:36;;;;;;;8.35;6.70;;;;;;;;;;5061947;28;20056;-77
2023/06/18 12:40:23;;;;;;;6.55;5.50;;;;;;;;;;5065773;28;20055;-78
2023/06/18 12:42:50;;;;;;;8.10;5.95;;;;;;;;;;5045369;28;20088;-77
2023/06/18 12:45:16;;;;;;;7.00;5.63;;;;;;;;;;5063735;28;20036;-78
2023/06/18 12:47:46;;;;;;;6.78;5.07;;;;;;;;;;5062748;28;20393;-77
2023/06/18 12:50:13;;;;;;;8.65;5.97;;;;;;;;;;5066635;28;20120;-77
2023/06/18 12:52:40;;;;;;;6.97;5.65;;;;;;;;;;5062595;28;20028;-77
2023/06/18 12:55:16;;;;;;;7.22;6.45;;;;;;;;;;5047297;28;20035;-77
2023/06/18 12:57:48;;;;;;;7.18;5.28;;;;;;;;;;5063522;28;20034;-76
2023/06/18 13:00:15;;;;;;;9.95;6.22;;;;;;;;;;5043466;28;20029;-78
2023/06/18 13:02:42;;;;;;;6.35;4.85;;;;;;;;;;5062986;28;20036;-79
2023/06/18 13:05:08;;;;;;;6.38;5.03;;;;;;;;;;5064204;28;20067;-80
2023/06/18 13:07:34;;;;;;;6.72;5.30;;;;;;;;;;5044726;28;20158;-77
2023/06/18 13:10:01;;;;;;;7.97;5.22;;;;;;;;;;5044440;28;20040;-77
2023/06/18 13:12:27;;;;;;;7.25;5.47;;;;;;;;;;5046879;28;20025;-78
2023/06/18 13:14:53;;;;;;;7.30;5.53;;;;;;;;;;5062056;28;20052;-77
2023/06/18 13:17:19;;;;;;;6.07;4.97;;;;;;;;;;5062511;28;20059;-79
2023/06/18 13:19:45;;;;;;;6.10;4.40;;;;;;;;;;5060187;28;20029;-77
2023/06/18 13:22:12;;;;;;;8.68;4.88;;;;;;;;;;5063283;28;20043;-79
2023/06/18 13:24:39;;;;;;;5.68;4.82;;;;;;;;;;5065041;28;20024;-77
2023/06/18 13:27:06;;;;;;;7.57;4.63;;;;;;;;;;5062737;28;20506;-79
2023/06/18 13:29:32;;;;;;;5.80;4.30;;;;;;;;;;5045358;28;20729;-78
2023/06/18 13:31:59;;;;;;;7.03;5.32;;;;;;;;;;5063076;28;20064;-77
2023/06/18 13:34:27;;;;;;;5.00;4.50;;;;;;;;;;5045123;28;20044;-80
2023/06/18 13:36:53;;;;;;;5.38;4.32;;;;;;;;;;5063922;28;20169;-77
2023/06/18 13:39:19;;;;;;;6.03;4.63;;;;;;;;;;5063137;28;20551;-76
2023/06/18 13:41:46;;;;;;;6.05;5.10;;;;;;;;;;5062085;28;20032;-78
2023/06/18 13:44:12;;;;;;;6.90;4.82;;;;;;;;;;5062098;28;20500;-78
2023/06/18 13:46:38;;;;;;;6.75;4.80;;;;;;;;;;5065080;28;20023;-77
2023/06/18 13:49:04;;;;;;;6.97;4.97;;;;;;;;;;5061889;28;20079;-78
2023/06/18 13:51:31;;;;;;;7.35;4.80;;;;;;;;;;5060313;28;20563;-77
2023/06/18 13:53:57;;;;;;;7.10;4.57;;;;;;;;;;5064318;28;20025;-77
2023/06/18 13:56:23;;;;;;;6.88;5.30;;;;;;;;;;5063153;28;20038;-76
2023/06/18 13:58:49;;;;;;;7.00;4.95;;;;;;;;;;5062875;28;20028;-77
2023/06/18 14:01:15;;;;;;;8.02;4.80;;;;;;;;;;5063121;28;20028;-77
2023/06/18 14:03:41;;;;;;;7.38;5.00;;;;;;;;;;5062979;28;20046;-77
2023/06/18 14:06:08;;;;;;;7.68;4.70;;;;;;;;;;5045431;28;20656;-77
2023/06/18 14:08:34;;;;;;;5.82;4.88;;;;;;;;;;5060548;28;20032;-78
2023/06/18 14:11:00;;;;;;;9.52;5.43;;;;;;;;;;5062657;28;20743;-77
2023/06/18 14:13:26;;;;;;;6.90;4.65;;;;;;;;;;5060858;28;20012;-77
2023/06/18 14:15:52;;;;;;;7.38;5.63;;;;;;;;;;5060386;28;20032;-78
2023/06/18 14:18:18;;;;;;;7.30;4.85;;;;;;;;;;5060489;28;20113;-77
2023/06/18 14:20:45;;;;;;;8.82;5.40;;;;;;;;;;5043314;28;21119;-77
2023/06/18 14:23:11;;;;;;;6.80;4.82;;;;;;;;;;5055866;28;20039;-76
2023/06/18 14:25:38;;;;;;;8.02;5.30;;;;;;;;;;5060569;28;20381;-77
2023/06/18 14:28:04;;;;;;;7.38;4.90;;;;;;;;;;5060125;28;20025;-77
2023/06/18 14:30:31;;;;;;;6.72;4.80;;;;;;;;;;5059511;28;20044;-79